Time;durP1;ratioP1;P1;durP2;ratioP2;P2;SDS_P1;SDS_P2;PMS_P1;PMS_P2;Temp;Humidity;BMP_temperature;BMP_pressure;BME280_temperature;BME280_humidity;BME280_pressure;Samples;Min_cycle;Max_cycle;Signal;HPM_P1;HPM_P2
2021/05/07 09:36:57;;;;;;;9.55;3.85;;;;;;;;;;143847;573;45022;-56
2021/05/07 09:39:26;;;;;;;8.48;4.07;;;;;;;;;;143744;582;45021;-58
2021/05/07 09:41:54;;;;;;;8.10;3.22;;;;;;;;;;143734;585;47020;-54
2021/05/07 09:44:27;;;;;;;9.85;4.03;;;;;;;;;;143678;573;46020;-55
2021/05/07 09:46:55;;;;;;;8.40;4.10;;;;;;;;;;143735;705;45021;-53
2021/05/07 09:49:32;;;;;;;13.73;4.90;;;;;;;;;;143738;581;46020;-53
2021/05/07 09:51:59;;;;;;;10.48;4.03;;;;;;;;;;143731;629;46022;-54
2021/05/07 10:01:32;;;;;;;13.18;4.32;;;;;;;;;;143842;589;47012;-56
2021/05/07 10:04:00;;;;;;;9.57;4.22;;;;;;;;;;145464;65;60814;-54
2021/05/07 10:06:28;;;;;;;10.70;3.83;;;;;;;;;;143742;565;46020;-54
2021/05/07 10:08:55;;;;;;;9.10;3.95;;;;;;;;;;143740;587;46020;-55
2021/05/07 10:11:23;;;;;;;15.18;3.95;;;;;;;;;;143743;570;45021;-56
2021/05/07 10:13:55;;;;;;;10.02;4.05;;;;;;;;;;143744;687;45020;-55
2021/05/07 10:16:31;;;;;;;13.30;3.83;;;;;;;;;;143736;586;50021;-57
2021/05/07 10:19:03;;;;;;;10.32;3.75;;;;;;;;;;143738;572;46021;-55
2021/05/07 10:21:38;;;;;;;8.95;3.35;;;;;;;;;;143742;569;45020;-56
2021/05/07 10:24:07;;;;;;;8.55;3.30;;;;;;;;;;143742;592;46020;-56
2021/05/07 10:26:36;;;;;;;10.18;3.97;;;;;;;;;;143740;585;46021;-55
2021/05/07 10:29:14;;;;;;;9.98;3.17;;;;;;;;;;143739;599;46024;-55
2021/05/07 10:31:59;;;;;;;9.48;3.25;;;;;;;;;;143743;661;45021;-57
2021/05/07 10:34:28;;;;;;;7.72;2.85;;;;;;;;;;143744;577;45021;-55
2021/05/07 10:37:01;;;;;;;7.95;3.33;;;;;;;;;;143735;608;49012;-55
2021/05/07 10:39:30;;;;;;;9.15;3.40;;;;;;;;;;143737;566;46029;-56
2021/05/07 10:41:59;;;;;;;10.80;3.83;;;;;;;;;;143738;566;48012;-56
2021/05/07 10:44:28;;;;;;;9.45;3.17;;;;;;;;;;143741;592;46020;-54
2021/05/07 10:47:09;;;;;;;8.27;3.50;;;;;;;;;;143740;594;46022;-56
2021/05/07 10:49:44;;;;;;;12.85;3.90;;;;;;;;;;143741;583;46020;-55
2021/05/07 10:52:13;;;;;;;9.85;3.22;;;;;;;;;;143740;572;45042;-56
2021/05/07 10:54:46;;;;;;;9.45;3.25;;;;;;;;;;143744;573;46020;-57
2021/05/07 10:57:27;;;;;;;6.30;2.47;;;;;;;;;;143741;565;46023;-55
2021/05/07 10:59:59;;;;;;;12.95;3.58;;;;;;;;;;143742;569;46020;-56
2021/05/07 11:02:26;;;;;;;8.13;3.65;;;;;;;;;;143742;573;45021;-56
2021/05/07 11:04:54;;;;;;;12.90;4.15;;;;;;;;;;143743;575;46020;-56
2021/05/07 11:07:28;;;;;;;9.40;4.03;;;;;;;;;;143737;601;48020;-54
2021/05/07 11:10:11;;;;;;;12.18;3.83;;;;;;;;;;143739;580;46021;-56
2021/05/07 11:12:43;;;;;;;9.48;2.72;;;;;;;;;;143741;579;45020;-54
2021/05/07 11:15:20;;;;;;;11.07;3.30;;;;;;;;;;143744;617;46012;-54
2021/05/07 11:17:57;;;;;;;11.00;4.22;;;;;;;;;;143740;569;46021;-55
2021/05/07 11:20:35;;;;;;;10.43;3.80;;;;;;;;;;143738;569;46020;-56
2021/05/07 11:23:03;;;;;;;6.37;3.53;;;;;;;;;;143741;606;46020;-55
2021/05/07 11:25:32;;;;;;;5.10;3.53;;;;;;;;;;143744;627;46021;-55
2021/05/07 11:28:17;;;;;;;8.18;3.53;;;;;;;;;;143738;566;46022;-57
2021/05/07 11:31:00;;;;;;;6.05;2.90;;;;;;;;;;143739;602;46020;-54
2021/05/07 11:33:29;;;;;;;14.77;4.55;;;;;;;;;;143743;574;45021;-55
2021/05/07 11:36:08;;;;;;;6.78;3.28;;;;;;;;;;143745;584;45020;-56
2021/05/07 11:38:39;;;;;;;8.75;3.87;;;;;;;;;;143739;576;46022;-56
2021/05/07 11:41:21;;;;;;;10.15;3.95;;;;;;;;;;143736;608;46021;-55
2021/05/07 11:43:49;;;;;;;9.68;3.47;;;;;;;;;;143743;654;45020;-55
2021/05/07 11:46:16;;;;;;;8.65;3.00;;;;;;;;;;143745;574;45021;-55
2021/05/07 11:48:48;;;;;;;9.00;3.70;;;;;;;;;;143738;559;46023;-53
2021/05/07 11:51:16;;;;;;;13.48;3.65;;;;;;;;;;143739;574;46020;-55
2021/05/07 11:53:44;;;;;;;9.20;3.42;;;;;;;;;;143742;600;45021;-57
2021/05/07 11:56:25;;;;;;;12.68;3.58;;;;;;;;;;143745;583;45021;-57
2021/05/07 11:58:53;;;;;;;6.87;2.92;;;;;;;;;;143741;564;46022;-55
2021/05/07 12:01:25;;;;;;;9.32;4.30;;;;;;;;;;143740;579;46020;-55
2021/05/07 12:03:54;;;;;;;8.43;3.35;;;;;;;;;;143743;575;45021;-56
2021/05/07 12:06:24;;;;;;;10.43;3.53;;;;;;;;;;143744;573;45020;-57
2021/05/07 12:08:52;;;;;;;9.27;3.42;;;;;;;;;;143741;569;46022;-55
2021/05/07 12:11:20;;;;;;;8.68;3.25;;;;;;;;;;143740;627;46021;-54
2021/05/07 12:13:47;;;;;;;7.55;3.00;;;;;;;;;;143741;566;45033;-56
2021/05/07 12:16:15;;;;;;;6.65;3.12;;;;;;;;;;143743;581;46021;-54
2021/05/07 12:18:52;;;;;;;16.60;3.45;;;;;;;;;;143739;597;46023;-56
2021/05/07 12:21:20;;;;;;;10.63;2.97;;;;;;;;;;143738;619;46020;-55
2021/05/07 12:23:51;;;;;;;14.87;3.37;;;;;;;;;;143742;590;45021;-56
2021/05/07 12:26:20;;;;;;;9.32;3.05;;;;;;;;;;143744;678;46043;-57
2021/05/07 12:29:00;;;;;;;8.93;3.17;;;;;;;;;;143741;583;46020;-57
2021/05/07 12:31:33;;;;;;;8.35;3.72;;;;;;;;;;143741;571;46023;-58
2021/05/07 12:34:00;;;;;;;6.57;3.00;;;;;;;;;;143743;569;45018;-57
2021/05/07 12:36:28;;;;;;;12.05;4.30;;;;;;;;;;143745;589;45022;-56
2021/05/07 12:39:06;;;;;;;14.23;4.28;;;;;;;;;;143740;578;46020;-57
2021/05/07 12:41:33;;;;;;;8.80;2.95;;;;;;;;;;143739;570;46023;-53
2021/05/07 12:44:00;;;;;;;10.18;3.05;;;;;;;;;;143743;569;45018;-54
2021/05/07 12:46:27;;;;;;;13.55;3.67;;;;;;;;;;143746;585;45023;-56
2021/05/07 12:48:56;;;;;;;8.50;3.30;;;;;;;;;;143740;576;46018;-56
2021/05/07 12:51:24;;;;;;;16.33;3.75;;;;;;;;;;143740;577;46022;-55
2021/05/07 12:53:52;;;;;;;10.55;3.33;;;;;;;;;;143742;576;45019;-53
2021/05/07 12:56:26;;;;;;;7.25;3.22;;;;;;;;;;143741;572;46012;-56
2021/05/07 12:58:53;;;;;;;12.05;4.10;;;;;;;;;;143741;623;46020;-55
2021/05/07 13:01:20;;;;;;;21.23;4.70;;;;;;;;;;143739;576;46026;-55
2021/05/07 13:03:47;;;;;;;12.23;4.18;;;;;;;;;;143741;566;45019;-57
2021/05/07 13:06:14;;;;;;;10.05;3.95;;;;;;;;;;143744;590;46012;-57
2021/05/07 13:08:41;;;;;;;11.07;3.78;;;;;;;;;;143740;564;46019;-57
2021/05/07 13:11:08;;;;;;;8.88;3.72;;;;;;;;;;143739;680;46023;-55
2021/05/07 13:13:39;;;;;;;12.82;4.00;;;;;;;;;;143743;570;45018;-54
2021/05/07 13:16:06;;;;;;;8.15;3.00;;;;;;;;;;143744;627;45023;-56
2021/05/07 13:18:33;;;;;;;6.95;3.08;;;;;;;;;;143741;654;46018;-55
2021/05/07 13:21:00;;;;;;;9.70;3.22;;;;;;;;;;143742;587;46022;-57
2021/05/07 13:23:27;;;;;;;7.20;3.12;;;;;;;;;;143743;590;45019;-55
2021/05/07 13:25:55;;;;;;;7.35;3.05;;;;;;;;;;143741;565;46012;-55
2021/05/07 13:28:22;;;;;;;6.78;2.97;;;;;;;;;;143738;609;47018;-56
2021/05/07 13:30:49;;;;;;;11.23;4.30;;;;;;;;;;143741;574;46023;-56
2021/05/07 13:33:19;;;;;;;8.18;3.33;;;;;;;;;;143743;585;45019;-56
2021/05/07 13:35:46;;;;;;;10.73;3.47;;;;;;;;;;143744;572;45022;-55
2021/05/07 13:38:14;;;;;;;8.98;3.40;;;;;;;;;;143740;591;46019;-56
2021/05/07 13:40:41;;;;;;;12.43;3.55;;;;;;;;;;143740;569;46023;-54
2021/05/07 13:43:07;;;;;;;10.65;3.30;;;;;;;;;;143741;610;45910;-57
2021/05/07 13:45:36;;;;;;;9.68;3.22;;;;;;;;;;143744;605;45023;-54
2021/05/07 13:48:04;;;;;;;13.68;3.42;;;;;;;;;;143742;636;46021;-56
2021/05/07 13:50:31;;;;;;;9.65;3.03;;;;;;;;;;143740;583;46022;-55
2021/05/07 13:52:58;;;;;;;13.45;3.58;;;;;;;;;;143742;578;45020;-54
2021/05/07 13:55:25;;;;;;;8.05;4.00;;;;;;;;;;143745;583;45023;-55
2021/05/07 13:57:52;;;;;;;11.38;3.50;;;;;;;;;;143739;600;46020;-57
2021/05/07 14:00:19;;;;;;;10.02;3.65;;;;;;;;;;143742;590;46022;-56
2021/05/07 14:02:46;;;;;;;12.48;4.32;;;;;;;;;;143743;587;45019;-55
2021/05/07 14:05:13;;;;;;;15.45;4.37;;;;;;;;;;143744;579;45037;-55
2021/05/07 14:07:40;;;;;;;7.30;3.45;;;;;;;;;;143740;577;46018;-56
2021/05/07 14:10:08;;;;;;;13.98;3.90;;;;;;;;;;143741;593;46022;-56
2021/05/07 14:12:35;;;;;;;12.55;4.30;;;;;;;;;;143741;608;45908;-55
2021/05/07 14:15:03;;;;;;;10.90;3.75;;;;;;;;;;143744;626;45022;-56
2021/05/07 14:17:30;;;;;;;8.63;3.45;;;;;;;;;;143737;569;46019;-55
2021/05/07 14:19:57;;;;;;;12.82;4.50;;;;;;;;;;143742;570;46022;-55
2021/05/07 14:22:24;;;;;;;8.35;3.65;;;;;;;;;;143743;605;45018;-56
2021/05/07 14:24:51;;;;;;;13.52;3.92;;;;;;;;;;143744;595;45023;-55
2021/05/07 14:27:18;;;;;;;9.43;3.97;;;;;;;;;;143740;575;46018;-53
2021/05/07 14:29:45;;;;;;;12.27;3.90;;;;;;;;;;143739;586;46022;-54
2021/05/07 14:32:12;;;;;;;13.07;3.67;;;;;;;;;;143743;609;45019;-55
2021/05/07 14:34:39;;;;;;;8.18;3.95;;;;;;;;;;143743;569;45022;-54
2021/05/07 14:37:06;;;;;;;10.27;3.42;;;;;;;;;;143738;678;46020;-53
2021/05/07 14:39:35;;;;;;;13.02;4.10;;;;;;;;;;143740;585;46023;-53
2021/05/07 14:42:02;;;;;;;9.48;3.83;;;;;;;;;;143743;595;45018;-53
2021/05/07 14:44:29;;;;;;;7.40;4.00;;;;;;;;;;143742;571;46012;-54
2021/05/07 14:46:56;;;;;;;13.48;4.30;;;;;;;;;;143737;577;46019;-56
2021/05/07 14:49:23;;;;;;;10.60;4.40;;;;;;;;;;143739;576;46022;-57
2021/05/07 14:51:50;;;;;;;8.60;3.20;;;;;;;;;;143742;685;45018;-55
2021/05/07 14:54:17;;;;;;;8.13;4.12;;;;;;;;;;143744;580;45023;-54
2021/05/07 14:56:44;;;;;;;8.88;3.15;;;;;;;;;;143739;569;46018;-54
2021/05/07 14:59:11;;;;;;;7.40;3.47;;;;;;;;;;143741;586;46022;-57
2021/05/07 15:01:38;;;;;;;8.65;3.40;;;;;;;;;;143742;564;45019;-54
2021/05/07 15:04:06;;;;;;;6.57;3.50;;;;;;;;;;143744;569;45022;-57
2021/05/07 15:06:33;;;;;;;8.15;4.05;;;;;;;;;;143739;569;46018;-57
2021/05/07 15:09:00;;;;;;;9.48;3.58;;;;;;;;;;143741;604;46023;-54
2021/05/07 15:11:27;;;;;;;9.05;3.22;;;;;;;;;;143743;628;45018;-56
2021/05/07 15:13:55;;;;;;;7.07;3.33;;;;;;;;;;143744;571;45022;-56
2021/05/07 15:16:22;;;;;;;7.03;3.42;;;;;;;;;;143741;601;46021;-54
2021/05/07 15:18:49;;;;;;;7.62;4.00;;;;;;;;;;143739;569;46022;-57
2021/05/07 15:21:16;;;;;;;7.43;3.45;;;;;;;;;;143743;588;45018;-55
2021/05/07 15:23:43;;;;;;;7.15;3.58;;;;;;;;;;143742;590;45023;-55
2021/05/07 15:26:10;;;;;;;5.35;2.85;;;;;;;;;;143741;608;46018;-54
2021/05/07 15:28:37;;;;;;;6.70;3.28;;;;;;;;;;143741;575;46022;-55
2021/05/07 15:31:04;;;;;;;5.93;2.85;;;;;;;;;;143742;582;45019;-54
2021/05/07 15:33:31;;;;;;;7.28;3.22;;;;;;;;;;143744;575;46022;-55
2021/05/07 15:35:58;;;;;;;7.55;3.42;;;;;;;;;;143741;581;46034;-54
2021/05/07 15:38:25;;;;;;;17.17;4.30;;;;;;;;;;143740;573;46023;-54
2021/05/07 15:40:52;;;;;;;9.00;3.35;;;;;;;;;;143743;571;45019;-55
2021/05/07 15:43:19;;;;;;;7.60;3.65;;;;;;;;;;143744;569;45022;-55
2021/05/07 15:45:46;;;;;;;10.05;3.35;;;;;;;;;;143741;586;46019;-55
2021/05/07 15:48:13;;;;;;;6.78;3.30;;;;;;;;;;143740;590;46022;-55
2021/05/07 15:50:40;;;;;;;8.98;3.42;;;;;;;;;;143743;587;45038;-55
2021/05/07 15:53:08;;;;;;;5.90;3.10;;;;;;;;;;143744;581;45031;-56
2021/05/07 15:55:35;;;;;;;7.35;3.30;;;;;;;;;;143740;601;46020;-57
2021/05/07 15:58:02;;;;;;;8.50;3.37;;;;;;;;;;143742;606;46022;-57
2021/05/07 16:00:29;;;;;;;5.55;3.17;;;;;;;;;;143742;590;45019;-57
2021/05/07 16:02:56;;;;;;;10.60;3.67;;;;;;;;;;143742;566;46039;-58
2021/05/07 16:05:23;;;;;;;8.30;3.70;;;;;;;;;;143739;593;46022;-55
2021/05/07 16:07:50;;;;;;;7.15;3.45;;;;;;;;;;143741;581;46021;-57
2021/05/07 16:10:17;;;;;;;10.45;4.45;;;;;;;;;;143743;586;45021;-58
2021/05/07 16:12:45;;;;;;;10.52;4.20;;;;;;;;;;143744;615;45020;-56
2021/05/07 16:15:13;;;;;;;14.70;4.10;;;;;;;;;;143742;567;46022;-56
2021/05/07 16:17:40;;;;;;;8.30;3.70;;;;;;;;;;143740;591;46020;-57
2021/05/07 16:20:08;;;;;;;8.38;3.45;;;;;;;;;;143743;641;45029;-57
2021/05/07 16:22:34;;;;;;;6.85;3.45;;;;;;;;;;143744;615;46020;-56
2021/05/07 16:25:02;;;;;;;5.72;3.50;;;;;;;;;;143740;569;46020;-56
2021/05/07 16:27:29;;;;;;;7.00;3.60;;;;;;;;;;143741;578;46020;-57
2021/05/07 16:29:56;;;;;;;9.52;3.42;;;;;;;;;;143744;595;45021;-57
2021/05/07 16:32:23;;;;;;;8.18;3.45;;;;;;;;;;143744;566;46020;-58
2021/05/07 16:34:51;;;;;;;9.05;3.80;;;;;;;;;;143741;563;46022;-58
2021/05/07 16:37:22;;;;;;;7.82;4.07;;;;;;;;;;143740;618;46021;-57
2021/05/07 16:39:49;;;;;;;11.38;4.25;;;;;;;;;;143739;587;45020;-58
2021/05/07 16:42:16;;;;;;;8.48;3.33;;;;;;;;;;143744;578;45020;-54
2021/05/07 16:44:43;;;;;;;7.87;3.40;;;;;;;;;;143742;599;46020;-56
2021/05/07 16:47:10;;;;;;;7.35;3.67;;;;;;;;;;143740;622;46020;-54
2021/05/07 16:49:38;;;;;;;15.13;4.55;;;;;;;;;;143743;570;45020;-56
2021/05/07 16:52:05;;;;;;;10.85;4.40;;;;;;;;;;143744;608;46020;-58
2021/05/07 16:54:32;;;;;;;8.80;3.67;;;;;;;;;;143741;650;46020;-58
2021/05/07 16:56:59;;;;;;;10.18;4.00;;;;;;;;;;143740;568;46020;-56
2021/05/07 16:59:26;;;;;;;10.45;3.83;;;;;;;;;;143741;567;46038;-58
2021/05/07 17:01:53;;;;;;;9.75;3.42;;;;;;;;;;143744;581;45023;-57
2021/05/07 17:04:21;;;;;;;7.75;4.43;;;;;;;;;;143742;573;46020;-58
2021/05/07 17:06:48;;;;;;;5.43;3.30;;;;;;;;;;143740;569;46023;-57
2021/05/07 17:09:15;;;;;;;9.73;3.83;;;;;;;;;;143743;570;45018;-57
2021/05/07 17:11:42;;;;;;;8.93;3.47;;;;;;;;;;143745;774;45022;-58
2021/05/07 17:14:08;;;;;;;9.85;3.83;;;;;;;;;;143742;569;46020;-58
2021/05/07 17:16:35;;;;;;;12.15;3.97;;;;;;;;;;143740;741;46020;-56
2021/05/07 17:19:02;;;;;;;11.32;4.18;;;;;;;;;;143743;579;45020;-58
2021/05/07 17:21:30;;;;;;;9.00;4.30;;;;;;;;;;143743;612;46020;-56
2021/05/07 17:23:59;;;;;;;11.12;3.65;;;;;;;;;;143741;564;46023;-58
2021/05/07 17:26:27;;;;;;;8.18;3.95;;;;;;;;;;143739;589;46020;-56
2021/05/07 17:28:54;;;;;;;17.15;3.95;;;;;;;;;;143742;593;45021;-56
2021/05/07 17:31:22;;;;;;;11.48;4.95;;;;;;;;;;143745;569;45021;-57
2021/05/07 17:33:50;;;;;;;7.40;4.25;;;;;;;;;;143742;603;46022;-56
2021/05/07 17:36:17;;;;;;;7.57;3.53;;;;;;;;;;143741;621;46021;-56
2021/05/07 17:38:45;;;;;;;9.38;3.87;;;;;;;;;;143744;641;45021;-56
2021/05/07 17:41:12;;;;;;;11.15;4.28;;;;;;;;;;143744;608;45020;-56
2021/05/07 17:43:40;;;;;;;12.02;3.70;;;;;;;;;;143739;606;47039;-58
2021/05/07 17:46:07;;;;;;;5.68;3.42;;;;;;;;;;143740;625;46021;-56
2021/05/07 17:48:34;;;;;;;11.77;4.03;;;;;;;;;;143742;572;45020;-57
2021/05/07 17:51:01;;;;;;;9.45;3.87;;;;;;;;;;143744;623;45020;-58
2021/05/07 17:53:29;;;;;;;14.68;4.47;;;;;;;;;;143740;579;46021;-58
2021/05/07 17:55:56;;;;;;;13.48;4.07;;;;;;;;;;143740;577;46020;-56
2021/05/07 17:58:23;;;;;;;9.77;4.03;;;;;;;;;;143743;607;45020;-56
2021/05/07 18:00:49;;;;;;;12.90;4.30;;;;;;;;;;143744;597;46041;-57
2021/05/07 18:03:17;;;;;;;10.32;3.90;;;;;;;;;;143740;624;46018;-58
2021/05/07 18:05:44;;;;;;;10.63;3.58;;;;;;;;;;143741;563;46022;-58
2021/05/07 18:08:11;;;;;;;10.68;4.68;;;;;;;;;;143743;607;45019;-56
2021/05/07 18:10:38;;;;;;;12.15;4.43;;;;;;;;;;143745;566;45022;-57
2021/05/07 18:13:05;;;;;;;11.02;4.25;;;;;;;;;;143741;655;46020;-56
2021/05/07 18:15:32;;;;;;;9.55;3.95;;;;;;;;;;143741;594;46023;-55
2021/05/07 18:17:58;;;;;;;9.95;3.83;;;;;;;;;;143743;566;45018;-55
2021/05/07 18:20:25;;;;;;;11.82;4.57;;;;;;;;;;143746;570;46022;-55
2021/05/07 18:22:52;;;;;;;10.48;4.20;;;;;;;;;;143741;579;46038;-54
2021/05/07 18:25:19;;;;;;;9.02;3.95;;;;;;;;;;143741;564;46022;-57
2021/05/07 18:27:46;;;;;;;7.70;4.43;;;;;;;;;;143745;569;45018;-54
2021/05/07 18:30:17;;;;;;;17.15;4.12;;;;;;;;;;143747;573;45023;-55
2021/05/07 18:32:45;;;;;;;11.00;4.53;;;;;;;;;;143742;606;46018;-54
2021/05/07 18:35:12;;;;;;;8.60;4.10;;;;;;;;;;143741;604;46022;-54
2021/05/07 18:37:39;;;;;;;7.28;4.30;;;;;;;;;;143744;625;45019;-54
2021/05/07 18:40:07;;;;;;;8.25;3.83;;;;;;;;;;143744;564;46010;-57
2021/05/07 18:42:35;;;;;;;10.48;4.78;;;;;;;;;;143742;585;46018;-56
2021/05/07 18:45:03;;;;;;;13.50;4.70;;;;;;;;;;143742;605;46023;-56
2021/05/07 18:47:31;;;;;;;14.00;4.68;;;;;;;;;;143745;579;45018;-57
2021/05/07 18:49:58;;;;;;;14.60;4.72;;;;;;;;;;143746;563;45022;-58
2021/05/07 18:52:25;;;;;;;12.80;4.80;;;;;;;;;;143742;586;46019;-56
2021/05/07 18:54:56;;;;;;;15.15;4.78;;;;;;;;;;143741;566;46022;-57
2021/05/07 18:57:23;;;;;;;7.43;4.12;;;;;;;;;;143745;577;45018;-58
2021/05/07 18:59:50;;;;;;;10.43;5.22;;;;;;;;;;143745;589;46023;-57
2021/05/07 19:02:18;;;;;;;9.70;5.05;;;;;;;;;;143742;592;46018;-57
2021/05/07 19:04:45;;;;;;;13.38;4.70;;;;;;;;;;143741;565;46034;-58
2021/05/07 19:07:12;;;;;;;10.00;4.07;;;;;;;;;;143743;578;45019;-55
2021/05/07 19:09:39;;;;;;;8.15;4.15;;;;;;;;;;143745;590;45022;-55
2021/05/07 19:12:06;;;;;;;7.12;3.95;;;;;;;;;;143744;577;46020;-57
2021/05/07 19:14:34;;;;;;;12.73;4.93;;;;;;;;;;143744;575;46023;-56
2021/05/07 19:17:01;;;;;;;12.55;4.82;;;;;;;;;;143745;594;45032;-55
2021/05/07 19:19:29;;;;;;;9.48;4.53;;;;;;;;;;143744;615;46022;-57
2021/05/07 19:21:56;;;;;;;9.05;4.47;;;;;;;;;;143742;662;46019;-57
2021/05/07 19:24:24;;;;;;;10.23;4.53;;;;;;;;;;143742;589;46022;-55
2021/05/07 19:26:51;;;;;;;12.60;4.78;;;;;;;;;;143744;580;45018;-56
2021/05/07 19:29:19;;;;;;;13.88;5.00;;;;;;;;;;143746;572;45023;-55
2021/05/07 19:31:47;;;;;;;13.48;5.68;;;;;;;;;;143742;684;46020;-56
2021/05/07 19:34:14;;;;;;;9.00;4.93;;;;;;;;;;143742;574;46022;-58
2021/05/07 19:36:41;;;;;;;10.02;5.05;;;;;;;;;;143745;607;45021;-58
2021/05/07 19:39:09;;;;;;;16.77;5.32;;;;;;;;;;143744;576;45022;-55
2021/05/07 19:41:36;;;;;;;17.45;5.72;;;;;;;;;;143742;598;46020;-57
2021/05/07 19:44:04;;;;;;;16.42;5.68;;;;;;;;;;143742;597;46023;-57
2021/05/07 19:46:32;;;;;;;15.43;4.87;;;;;;;;;;143744;564;45018;-55
2021/05/07 19:48:59;;;;;;;11.50;6.18;;;;;;;;;;143743;570;45022;-55
2021/05/07 19:51:28;;;;;;;13.07;5.43;;;;;;;;;;143743;577;46020;-57
2021/05/07 19:53:56;;;;;;;14.63;5.05;;;;;;;;;;143741;590;46022;-55
2021/05/07 19:56:23;;;;;;;9.70;4.22;;;;;;;;;;143744;580;45018;-57
2021/05/07 19:58:50;;;;;;;8.70;4.57;;;;;;;;;;143746;564;45023;-55
2021/05/07 20:01:17;;;;;;;11.12;4.78;;;;;;;;;;143743;576;46020;-57
2021/05/07 20:03:46;;;;;;;12.93;5.65;;;;;;;;;;143743;596;46022;-55
2021/05/07 20:06:13;;;;;;;10.48;4.85;;;;;;;;;;143743;586;45035;-57
2021/05/07 20:08:40;;;;;;;12.52;5.45;;;;;;;;;;143744;695;46010;-57
2021/05/07 20:11:07;;;;;;;9.05;4.80;;;;;;;;;;143742;569;46020;-58
2021/05/07 20:13:34;;;;;;;11.93;5.43;;;;;;;;;;143743;567;46023;-57
2021/05/07 20:16:01;;;;;;;10.82;5.55;;;;;;;;;;143745;576;45018;-56
2021/05/07 20:18:28;;;;;;;11.57;5.12;;;;;;;;;;143742;564;46010;-57
2021/05/07 20:20:55;;;;;;;8.75;4.80;;;;;;;;;;143743;581;46020;-57
2021/05/07 20:23:22;;;;;;;10.63;5.37;;;;;;;;;;143740;570;46022;-58
2021/05/07 20:25:49;;;;;;;11.55;4.30;;;;;;;;;;143744;665;45018;-55
2021/05/07 20:28:16;;;;;;;14.35;4.80;;;;;;;;;;143741;606;46010;-55
2021/05/07 20:30:44;;;;;;;10.60;4.60;;;;;;;;;;143741;566;46020;-58
2021/05/07 20:33:11;;;;;;;9.23;4.60;;;;;;;;;;143743;604;46022;-56
2021/05/07 20:35:38;;;;;;;11.82;4.68;;;;;;;;;;143743;566;45019;-57
2021/05/07 20:38:05;;;;;;;10.52;5.55;;;;;;;;;;143745;564;45022;-57
2021/05/07 20:40:32;;;;;;;13.50;6.57;;;;;;;;;;143743;579;46020;-56
2021/05/07 20:43:00;;;;;;;14.20;7.10;;;;;;;;;;143742;591;46023;-57
2021/05/07 20:45:30;;;;;;;15.77;6.68;;;;;;;;;;143745;572;45020;-57
2021/05/07 20:47:58;;;;;;;23.40;7.03;;;;;;;;;;143743;607;45020;-56
2021/05/07 20:50:26;;;;;;;11.98;5.65;;;;;;;;;;143742;589;46019;-56
2021/05/07 20:52:52;;;;;;;13.55;5.30;;;;;;;;;;143742;587;46022;-56
2021/05/07 20:55:21;;;;;;;20.70;6.50;;;;;;;;;;143743;593;45018;-56
2021/05/07 20:57:48;;;;;;;17.17;6.70;;;;;;;;;;143745;563;46022;-58
2021/05/07 21:00:16;;;;;;;12.40;6.53;;;;;;;;;;143742;564;46018;-56
2021/05/07 21:02:44;;;;;;;11.60;6.03;;;;;;;;;;143740;599;47012;-58
2021/05/07 21:05:12;;;;;;;10.48;5.87;;;;;;;;;;143742;571;45910;-56
2021/05/07 21:07:38;;;;;;;11.20;5.87;;;;;;;;;;143745;638;45023;-56
2021/05/07 21:10:08;;;;;;;16.08;6.25;;;;;;;;;;143741;636;46020;-58
2021/05/07 21:12:35;;;;;;;10.90;5.85;;;;;;;;;;143743;594;46023;-57
2021/05/07 21:15:03;;;;;;;8.88;5.12;;;;;;;;;;143744;605;45022;-58
2021/05/07 21:17:31;;;;;;;10.93;5.90;;;;;;;;;;143746;604;45022;-57
2021/05/07 21:19:58;;;;;;;8.57;4.57;;;;;;;;;;143742;573;46019;-57
2021/05/07 21:22:25;;;;;;;9.93;4.62;;;;;;;;;;143741;587;46023;-56
2021/05/07 21:24:52;;;;;;;12.52;5.15;;;;;;;;;;143744;569;45018;-55
2021/05/07 21:27:19;;;;;;;11.65;5.07;;;;;;;;;;143746;574;45023;-56
2021/05/07 21:29:46;;;;;;;13.00;5.28;;;;;;;;;;143742;569;46018;-56
2021/05/07 21:32:13;;;;;;;8.10;4.30;;;;;;;;;;143741;625;46918;-57
2021/05/07 21:34:40;;;;;;;12.02;5.30;;;;;;;;;;143744;625;45019;-58
2021/05/07 21:37:08;;;;;;;9.82;4.90;;;;;;;;;;143744;587;46023;-57
2021/05/07 21:39:35;;;;;;;10.32;5.18;;;;;;;;;;143742;569;46018;-56
2021/05/07 21:42:02;;;;;;;9.52;4.72;;;;;;;;;;143743;592;46023;-58
2021/05/07 21:44:29;;;;;;;7.82;4.78;;;;;;;;;;143745;590;45019;-58
2021/05/07 21:46:57;;;;;;;9.05;4.05;;;;;;;;;;143745;565;45022;-56
2021/05/07 21:49:23;;;;;;;9.80;4.65;;;;;;;;;;143740;586;46020;-56
2021/05/07 21:51:50;;;;;;;10.88;5.47;;;;;;;;;;143741;615;46022;-57
2021/05/07 21:54:17;;;;;;;8.38;4.95;;;;;;;;;;143741;579;45910;-55
2021/05/07 21:56:44;;;;;;;10.23;5.22;;;;;;;;;;143744;567;46022;-56
2021/05/07 21:59:11;;;;;;;11.27;5.80;;;;;;;;;;143738;572;46019;-56
2021/05/07 22:01:38;;;;;;;11.48;5.43;;;;;;;;;;143738;574;46022;-56
2021/05/07 22:04:06;;;;;;;14.60;6.25;;;;;;;;;;143743;565;45019;-56
2021/05/07 22:06:32;;;;;;;11.18;5.70;;;;;;;;;;143744;589;45023;-57
2021/05/07 22:08:59;;;;;;;17.95;5.40;;;;;;;;;;143739;576;46020;-57
2021/05/07 22:11:26;;;;;;;13.23;6.12;;;;;;;;;;143742;583;46023;-57
2021/05/07 22:13:54;;;;;;;9.73;5.30;;;;;;;;;;143743;627;45019;-57
2021/05/07 22:16:20;;;;;;;11.35;6.30;;;;;;;;;;143742;576;46010;-57
2021/05/07 22:18:48;;;;;;;11.15;5.78;;;;;;;;;;143738;587;46020;-56
2021/05/07 22:21:15;;;;;;;16.85;6.80;;;;;;;;;;143741;564;46023;-57
2021/05/07 22:23:42;;;;;;;16.77;6.72;;;;;;;;;;143742;576;45018;-56
2021/05/07 22:26:09;;;;;;;21.02;6.40;;;;;;;;;;143744;585;45022;-57
2021/05/07 22:28:37;;;;;;;12.35;6.45;;;;;;;;;;143739;626;46031;-58
2021/05/07 22:31:04;;;;;;;17.98;5.82;;;;;;;;;;143741;588;46022;-57
2021/05/07 22:33:31;;;;;;;12.40;5.68;;;;;;;;;;143743;587;45018;-56
2021/05/07 22:35:58;;;;;;;11.38;6.45;;;;;;;;;;143736;648;48023;-56
2021/05/07 22:38:25;;;;;;;14.25;6.55;;;;;;;;;;143741;583;46020;-58
2021/05/07 22:40:52;;;;;;;11.55;5.55;;;;;;;;;;143740;590;46022;-58
2021/05/07 22:43:19;;;;;;;9.82;5.20;;;;;;;;;;143742;578;45019;-58
2021/05/07 22:45:46;;;;;;;16.17;6.15;;;;;;;;;;143743;573;46010;-58
2021/05/07 22:48:13;;;;;;;13.80;5.65;;;;;;;;;;143739;579;46020;-58
2021/05/07 22:50:41;;;;;;;11.45;6.03;;;;;;;;;;143738;569;46023;-58
2021/05/07 22:53:08;;;;;;;10.45;5.45;;;;;;;;;;143741;611;45018;-58
2021/05/07 22:55:35;;;;;;;10.73;5.57;;;;;;;;;;143743;576;45023;-58
2021/05/07 22:58:01;;;;;;;14.48;5.93;;;;;;;;;;143739;566;46021;-56
2021/05/07 23:00:29;;;;;;;12.37;5.10;;;;;;;;;;143739;587;46022;-57
2021/05/07 23:02:56;;;;;;;13.02;5.25;;;;;;;;;;143743;598;45018;-57
2021/05/07 23:05:23;;;;;;;13.32;5.20;;;;;;;;;;143744;569;45023;-57
2021/05/07 23:07:50;;;;;;;11.48;5.60;;;;;;;;;;143741;580;46020;-56
2021/05/07 23:10:19;;;;;;;10.35;5.53;;;;;;;;;;143738;596;46024;-57
2021/05/07 23:12:46;;;;;;;8.98;5.20;;;;;;;;;;143742;573;45019;-57
2021/05/07 23:15:15;;;;;;;10.20;5.53;;;;;;;;;;143744;585;45022;-56
2021/05/07 23:17:44;;;;;;;7.78;4.78;;;;;;;;;;143739;643;47019;-57
2021/05/07 23:20:13;;;;;;;9.35;5.47;;;;;;;;;;143738;585;46919;-57
2021/05/07 23:22:40;;;;;;;13.10;5.60;;;;;;;;;;143742;589;45018;-58
2021/05/07 23:25:08;;;;;;;9.75;5.20;;;;;;;;;;143744;588;45023;-58
2021/05/07 23:27:35;;;;;;;11.48;5.25;;;;;;;;;;143742;565;46018;-57
2021/05/07 23:30:04;;;;;;;11.40;5.28;;;;;;;;;;143741;602;46022;-57
2021/05/07 23:32:31;;;;;;;14.10;5.95;;;;;;;;;;143743;565;45019;-57
2021/05/07 23:34:58;;;;;;;13.13;5.90;;;;;;;;;;143741;572;46012;-58
2021/05/07 23:37:25;;;;;;;26.87;7.03;;;;;;;;;;143741;578;46039;-56
2021/05/07 23:39:52;;;;;;;17.00;7.75;;;;;;;;;;143741;591;46022;-57
2021/05/07 23:42:19;;;;;;;20.77;7.97;;;;;;;;;;143742;566;45019;-56
2021/05/07 23:44:47;;;;;;;21.20;7.35;;;;;;;;;;143742;628;45022;-57
2021/05/07 23:47:14;;;;;;;18.12;7.18;;;;;;;;;;143740;603;46026;-57
2021/05/07 23:49:42;;;;;;;11.65;6.18;;;;;;;;;;143740;571;46022;-57
2021/05/07 23:52:09;;;;;;;11.48;5.78;;;;;;;;;;143739;582;46012;-56
2021/05/07 23:54:37;;;;;;;12.52;6.35;;;;;;;;;;143743;572;45022;-56
2021/05/07 23:57:04;;;;;;;10.95;5.85;;;;;;;;;;143741;583;46021;-58
2021/05/07 23:59:31;;;;;;;9.35;5.37;;;;;;;;;;143739;601;46022;-57
